sensor_id;sensor_type;location;lat;lon;timestamp;temperature;humidity
15394;DHT22;7795;47.986;11.868;2022-09-25T00:01:20;16.50;81.70
15394;DHT22;7795;47.986;11.868;2022-09-25T00:03:46;16.40;81.50
15394;DHT22;7795;47.986;11.868;2022-09-25T00:06:13;16.40;81.40
15394;DHT22;7795;47.986;11.868;2022-09-25T00:08:40;16.30;81.30
15394;DHT22;7795;47.986;11.868;2022-09-25T00:11:08;16.30;81.40
15394;DHT22;7795;47.986;11.868;2022-09-25T00:13:35;16.30;81.40
15394;DHT22;7795;47.986;11.868;2022-09-25T00:16:03;16.20;81.40
15394;DHT22;7795;47.986;11.868;2022-09-25T00:18:29;16.20;81.50
15394;DHT22;7795;47.986;11.868;2022-09-25T00:21:14;16.10;81.50
15394;DHT22;7795;47.986;11.868;2022-09-25T00:23:42;16.10;81.60
15394;DHT22;7795;47.986;11.868;2022-09-25T00:26:11;16.00;81.70
15394;DHT22;7795;47.986;11.868;2022-09-25T00:28:38;16.00;82.50
15394;DHT22;7795;47.986;11.868;2022-09-25T00:31:06;16.00;81.80
15394;DHT22;7795;47.986;11.868;2022-09-25T00:33:32;15.90;81.80
15394;DHT22;7795;47.986;11.868;2022-09-25T00:36:00;15.90;81.90
15394;DHT22;7795;47.986;11.868;2022-09-25T00:38:28;15.90;82.00
15394;DHT22;7795;47.986;11.868;2022-09-25T00:40:54;15.80;82.00
15394;DHT22;7795;47.986;11.868;2022-09-25T00:43:36;15.80;82.10
15394;DHT22;7795;47.986;11.868;2022-09-25T00:46:06;15.80;82.60
15394;DHT22;7795;47.986;11.868;2022-09-25T00:48:32;15.80;82.40
15394;DHT22;7795;47.986;11.868;2022-09-25T00:50:59;15.70;82.40
15394;DHT22;7795;47.986;11.868;2022-09-25T00:53:27;15.70;82.40
15394;DHT22;7795;47.986;11.868;2022-09-25T00:55:56;15.70;82.40
15394;DHT22;7795;47.986;11.868;2022-09-25T00:58:25;15.70;82.50
15394;DHT22;7795;47.986;11.868;2022-09-25T01:00:54;15.70;82.50
15394;DHT22;7795;47.986;11.868;2022-09-25T01:03:20;15.60;82.40
15394;DHT22;7795;47.986;11.868;2022-09-25T01:05:47;15.60;82.40
15394;DHT22;7795;47.986;11.868;2022-09-25T01:08:17;15.60;82.30
15394;DHT22;7795;47.986;11.868;2022-09-25T01:10:44;15.50;82.20
15394;DHT22;7795;47.986;11.868;2022-09-25T01:13:10;15.50;82.10
15394;DHT22;7795;47.986;11.868;2022-09-25T01:15:44;15.40;82.00
15394;DHT22;7795;47.986;11.868;2022-09-25T01:18:22;15.40;82.20
15394;DHT22;7795;47.986;11.868;2022-09-25T01:21:08;15.40;82.30
15394;DHT22;7795;47.986;11.868;2022-09-25T01:29:35;15.20;81.90
15394;DHT22;7795;47.986;11.868;2022-09-25T01:32:08;15.20;81.70
15394;DHT22;7795;47.986;11.868;2022-09-25T01:34:39;15.20;81.70
15394;DHT22;7795;47.986;11.868;2022-09-25T01:37:14;15.10;81.70
15394;DHT22;7795;47.986;11.868;2022-09-25T01:39:46;15.00;81.60
15394;DHT22;7795;47.986;11.868;2022-09-25T01:42:19;15.00;81.60
15394;DHT22;7795;47.986;11.868;2022-09-25T01:44:51;15.00;81.60
15394;DHT22;7795;47.986;11.868;2022-09-25T01:47:23;14.90;81.50
15394;DHT22;7795;47.986;11.868;2022-09-25T01:49:54;14.90;81.40
15394;DHT22;7795;47.986;11.868;2022-09-25T01:52:25;14.80;81.40
15394;DHT22;7795;47.986;11.868;2022-09-25T01:54:55;14.80;81.50
15394;DHT22;7795;47.986;11.868;2022-09-25T01:57:28;14.70;81.50
15394;DHT22;7795;47.986;11.868;2022-09-25T02:00:04;14.70;81.50
15394;DHT22;7795;47.986;11.868;2022-09-25T02:02:32;14.70;81.60
15394;DHT22;7795;47.986;11.868;2022-09-25T02:05:06;14.60;81.60
15394;DHT22;7795;47.986;11.868;2022-09-25T02:07:34;14.60;81.60
15394;DHT22;7795;47.986;11.868;2022-09-25T02:10:04;14.50;81.60
15394;DHT22;7795;47.986;11.868;2022-09-25T02:12:35;14.50;81.70
15394;DHT22;7795;47.986;11.868;2022-09-25T02:15:08;14.50;81.80
15394;DHT22;7795;47.986;11.868;2022-09-25T02:17:41;14.50;81.90
15394;DHT22;7795;47.986;11.868;2022-09-25T02:20:29;14.40;81.90
15394;DHT22;7795;47.986;11.868;2022-09-25T02:23:02;14.40;82.00
15394;DHT22;7795;47.986;11.868;2022-09-25T02:25:35;14.40;82.20
15394;DHT22;7795;47.986;11.868;2022-09-25T02:28:02;14.40;82.20
15394;DHT22;7795;47.986;11.868;2022-09-25T02:30:29;14.30;82.20
15394;DHT22;7795;47.986;11.868;2022-09-25T02:32:55;14.30;82.20
15394;DHT22;7795;47.986;11.868;2022-09-25T02:35:22;14.30;82.30
15394;DHT22;7795;47.986;11.868;2022-09-25T02:37:48;14.30;82.30
15394;DHT22;7795;47.986;11.868;2022-09-25T02:40:14;14.30;82.30
15394;DHT22;7795;47.986;11.868;2022-09-25T02:42:45;14.30;82.40
15394;DHT22;7795;47.986;11.868;2022-09-25T02:45:27;14.30;82.50
15394;DHT22;7795;47.986;11.868;2022-09-25T02:48:06;14.30;82.60
15394;DHT22;7795;47.986;11.868;2022-09-25T02:50:40;14.30;82.60
15394;DHT22;7795;47.986;11.868;2022-09-25T02:53:11;14.30;82.50
15394;DHT22;7795;47.986;11.868;2022-09-25T02:55:40;14.20;82.50
15394;DHT22;7795;47.986;11.868;2022-09-25T02:58:13;14.20;82.50
15394;DHT22;7795;47.986;11.868;2022-09-25T03:00:41;14.20;82.50
15394;DHT22;7795;47.986;11.868;2022-09-25T03:03:12;14.20;82.40
15394;DHT22;7795;47.986;11.868;2022-09-25T03:05:40;14.20;82.40
15394;DHT22;7795;47.986;11.868;2022-09-25T03:08:06;14.20;82.30
15394;DHT22;7795;47.986;11.868;2022-09-25T03:10:50;14.20;82.30
15394;DHT22;7795;47.986;11.868;2022-09-25T03:13:18;14.20;82.50
15394;DHT22;7795;47.986;11.868;2022-09-25T03:15:47;14.20;82.60
15394;DHT22;7795;47.986;11.868;2022-09-25T03:18:16;14.10;82.60
15394;DHT22;7795;47.986;11.868;2022-09-25T03:20:42;14.10;82.60
15394;DHT22;7795;47.986;11.868;2022-09-25T03:23:08;14.10;82.60
15394;DHT22;7795;47.986;11.868;2022-09-25T03:25:35;14.10;82.60
15394;DHT22;7795;47.986;11.868;2022-09-25T03:28:01;14.10;82.70
15394;DHT22;7795;47.986;11.868;2022-09-25T03:30:27;14.10;82.70
15394;DHT22;7795;47.986;11.868;2022-09-25T03:32:53;14.10;82.60
15394;DHT22;7795;47.986;11.868;2022-09-25T03:35:20;14.10;82.60
15394;DHT22;7795;47.986;11.868;2022-09-25T03:37:46;14.10;82.60
15394;DHT22;7795;47.986;11.868;2022-09-25T03:40:12;14.10;82.50
15394;DHT22;7795;47.986;11.868;2022-09-25T03:42:38;14.10;82.50
15394;DHT22;7795;47.986;11.868;2022-09-25T03:45:04;14.10;82.60
15394;DHT22;7795;47.986;11.868;2022-09-25T03:47:30;14.10;82.60
15394;DHT22;7795;47.986;11.868;2022-09-25T03:49:56;14.10;82.60
15394;DHT22;7795;47.986;11.868;2022-09-25T03:52:23;14.10;82.70
15394;DHT22;7795;47.986;11.868;2022-09-25T03:54:49;14.10;82.60
15394;DHT22;7795;47.986;11.868;2022-09-25T03:57:15;14.10;82.60
15394;DHT22;7795;47.986;11.868;2022-09-25T03:59:41;14.10;82.60
15394;DHT22;7795;47.986;11.868;2022-09-25T04:02:07;14.10;82.60
15394;DHT22;7795;47.986;11.868;2022-09-25T04:04:33;14.10;82.60
15394;DHT22;7795;47.986;11.868;2022-09-25T04:06:58;14.10;82.60
15394;DHT22;7795;47.986;11.868;2022-09-25T04:09:26;14.10;82.70
15394;DHT22;7795;47.986;11.868;2022-09-25T04:11:52;14.10;82.80
15394;DHT22;7795;47.986;11.868;2022-09-25T04:14:20;14.10;82.80
15394;DHT22;7795;47.986;11.868;2022-09-25T04:16:46;14.10;82.80
15394;DHT22;7795;47.986;11.868;2022-09-25T04:19:12;14.10;82.80
15394;DHT22;7795;47.986;11.868;2022-09-25T04:21:38;14.10;82.80
15394;DHT22;7795;47.986;11.868;2022-09-25T04:24:03;14.10;82.80
15394;DHT22;7795;47.986;11.868;2022-09-25T04:26:49;14.00;82.70
15394;DHT22;7795;47.986;11.868;2022-09-25T04:29:18;14.00;82.60
15394;DHT22;7795;47.986;11.868;2022-09-25T04:31:44;14.00;82.50
15394;DHT22;7795;47.986;11.868;2022-09-25T04:34:30;14.00;82.50
15394;DHT22;7795;47.986;11.868;2022-09-25T04:36:55;14.00;82.60
15394;DHT22;7795;47.986;11.868;2022-09-25T04:39:21;14.00;82.60
15394;DHT22;7795;47.986;11.868;2022-09-25T04:41:48;14.00;82.70
15394;DHT22;7795;47.986;11.868;2022-09-25T04:44:14;14.00;83.50
15394;DHT22;7795;47.986;11.868;2022-09-25T04:46:40;14.00;82.80
15394;DHT22;7795;47.986;11.868;2022-09-25T04:49:06;13.90;82.90
15394;DHT22;7795;47.986;11.868;2022-09-25T04:51:31;13.90;82.90
15394;DHT22;7795;47.986;11.868;2022-09-25T04:53:57;14.00;83.00
15394;DHT22;7795;47.986;11.868;2022-09-25T04:56:24;14.00;83.10
15394;DHT22;7795;47.986;11.868;2022-09-25T04:58:52;13.90;83.00
15394;DHT22;7795;47.986;11.868;2022-09-25T05:01:19;14.00;83.10
15394;DHT22;7795;47.986;11.868;2022-09-25T05:03:46;14.00;83.20
15394;DHT22;7795;47.986;11.868;2022-09-25T05:06:12;14.00;83.00
15394;DHT22;7795;47.986;11.868;2022-09-25T05:08:38;14.00;83.00
15394;DHT22;7795;47.986;11.868;2022-09-25T05:11:03;14.00;83.00
15394;DHT22;7795;47.986;11.868;2022-09-25T05:13:29;14.00;83.00
15394;DHT22;7795;47.986;11.868;2022-09-25T05:15:56;14.00;83.00
15394;DHT22;7795;47.986;11.868;2022-09-25T05:18:23;14.00;83.20
15394;DHT22;7795;47.986;11.868;2022-09-25T05:20:49;14.00;83.20
15394;DHT22;7795;47.986;11.868;2022-09-25T05:23:16;14.00;83.20
15394;DHT22;7795;47.986;11.868;2022-09-25T05:25:42;14.00;83.30
15394;DHT22;7795;47.986;11.868;2022-09-25T05:28:08;14.00;83.30
15394;DHT22;7795;47.986;11.868;2022-09-25T05:30:34;14.00;83.30
15394;DHT22;7795;47.986;11.868;2022-09-25T05:33:02;14.00;83.20
15394;DHT22;7795;47.986;11.868;2022-09-25T05:35:29;14.00;83.30
15394;DHT22;7795;47.986;11.868;2022-09-25T05:37:56;14.00;83.30
15394;DHT22;7795;47.986;11.868;2022-09-25T05:40:22;14.00;83.40
15394;DHT22;7795;47.986;11.868;2022-09-25T05:42:49;14.00;83.40
15394;DHT22;7795;47.986;11.868;2022-09-25T05:45:16;14.00;83.50
15394;DHT22;7795;47.986;11.868;2022-09-25T05:47:43;14.10;83.50
15394;DHT22;7795;47.986;11.868;2022-09-25T05:50:12;14.00;83.40
15394;DHT22;7795;47.986;11.868;2022-09-25T05:52:38;14.10;83.50
15394;DHT22;7795;47.986;11.868;2022-09-25T05:55:05;14.00;83.30
15394;DHT22;7795;47.986;11.868;2022-09-25T05:57:33;14.10;83.50
15394;DHT22;7795;47.986;11.868;2022-09-25T06:00:00;14.10;83.50
15394;DHT22;7795;47.986;11.868;2022-09-25T06:02:26;14.10;83.50
15394;DHT22;7795;47.986;11.868;2022-09-25T06:04:52;14.10;83.50
15394;DHT22;7795;47.986;11.868;2022-09-25T06:07:19;14.00;83.40
15394;DHT22;7795;47.986;11.868;2022-09-25T06:09:44;14.10;83.60
15394;DHT22;7795;47.986;11.868;2022-09-25T06:12:10;14.10;83.60
15394;DHT22;7795;47.986;11.868;2022-09-25T06:14:36;14.10;83.70
15394;DHT22;7795;47.986;11.868;2022-09-25T06:17:02;14.10;83.80
15394;DHT22;7795;47.986;11.868;2022-09-25T06:19:29;14.10;83.80
15394;DHT22;7795;47.986;11.868;2022-09-25T06:21:55;14.10;83.80
15394;DHT22;7795;47.986;11.868;2022-09-25T06:24:23;14.10;83.80
15394;DHT22;7795;47.986;11.868;2022-09-25T06:26:49;14.20;83.90
15394;DHT22;7795;47.986;11.868;2022-09-25T06:29:14;14.20;83.90
15394;DHT22;7795;47.986;11.868;2022-09-25T06:31:40;14.20;83.90
15394;DHT22;7795;47.986;11.868;2022-09-25T06:34:07;14.20;83.90
15394;DHT22;7795;47.986;11.868;2022-09-25T06:36:33;14.30;83.90
15394;DHT22;7795;47.986;11.868;2022-09-25T06:38:59;14.30;83.90
15394;DHT22;7795;47.986;11.868;2022-09-25T06:41:26;14.40;84.00
15394;DHT22;7795;47.986;11.868;2022-09-25T06:43:52;14.40;84.10
15394;DHT22;7795;47.986;11.868;2022-09-25T06:46:18;14.40;84.10
15394;DHT22;7795;47.986;11.868;2022-09-25T06:48:50;14.50;84.10
15394;DHT22;7795;47.986;11.868;2022-09-25T06:51:16;14.50;84.90
15394;DHT22;7795;47.986;11.868;2022-09-25T06:53:43;14.60;84.10
15394;DHT22;7795;47.986;11.868;2022-09-25T06:56:08;14.60;84.10
15394;DHT22;7795;47.986;11.868;2022-09-25T06:58:36;14.60;84.20
15394;DHT22;7795;47.986;11.868;2022-09-25T07:01:02;14.70;84.30
15394;DHT22;7795;47.986;11.868;2022-09-25T07:03:28;14.70;84.20
15394;DHT22;7795;47.986;11.868;2022-09-25T07:06:10;14.80;84.20
15394;DHT22;7795;47.986;11.868;2022-09-25T07:08:36;14.80;84.20
15394;DHT22;7795;47.986;11.868;2022-09-25T07:11:02;14.80;84.20
15394;DHT22;7795;47.986;11.868;2022-09-25T07:13:30;14.90;84.30
15394;DHT22;7795;47.986;11.868;2022-09-25T07:15:59;14.90;84.30
15394;DHT22;7795;47.986;11.868;2022-09-25T07:18:26;15.00;84.30
15394;DHT22;7795;47.986;11.868;2022-09-25T07:20:52;15.00;84.30
15394;DHT22;7795;47.986;11.868;2022-09-25T07:23:20;15.10;84.40
15394;DHT22;7795;47.986;11.868;2022-09-25T07:25:47;15.10;84.40
15394;DHT22;7795;47.986;11.868;2022-09-25T07:28:14;15.20;84.50
15394;DHT22;7795;47.986;11.868;2022-09-25T07:30:40;15.20;84.50
15394;DHT22;7795;47.986;11.868;2022-09-25T07:33:08;15.30;84.50
15394;DHT22;7795;47.986;11.868;2022-09-25T07:35:34;15.30;84.60
15394;DHT22;7795;47.986;11.868;2022-09-25T07:38:00;15.40;84.60
15394;DHT22;7795;47.986;11.868;2022-09-25T07:40:26;15.50;84.60
15394;DHT22;7795;47.986;11.868;2022-09-25T07:42:57;15.50;84.60
15394;DHT22;7795;47.986;11.868;2022-09-25T07:45:23;15.60;84.60
15394;DHT22;7795;47.986;11.868;2022-09-25T07:47:49;15.60;84.40
15394;DHT22;7795;47.986;11.868;2022-09-25T07:50:16;15.70;84.40
15394;DHT22;7795;47.986;11.868;2022-09-25T07:52:42;15.80;84.30
15394;DHT22;7795;47.986;11.868;2022-09-25T07:55:08;15.80;84.10
15394;DHT22;7795;47.986;11.868;2022-09-25T07:57:34;15.90;84.10
15394;DHT22;7795;47.986;11.868;2022-09-25T08:00:00;15.90;84.00
15394;DHT22;7795;47.986;11.868;2022-09-25T08:02:26;16.00;84.00
15394;DHT22;7795;47.986;11.868;2022-09-25T08:04:51;16.10;84.10
15394;DHT22;7795;47.986;11.868;2022-09-25T08:07:20;16.10;84.00
15394;DHT22;7795;47.986;11.868;2022-09-25T08:09:46;16.20;84.00
15394;DHT22;7795;47.986;11.868;2022-09-25T08:12:11;16.20;83.90
15394;DHT22;7795;47.986;11.868;2022-09-25T08:14:38;16.30;83.80
15394;DHT22;7795;47.986;11.868;2022-09-25T08:17:03;16.40;83.80
15394;DHT22;7795;47.986;11.868;2022-09-25T08:19:29;16.40;83.70
15394;DHT22;7795;47.986;11.868;2022-09-25T08:21:55;16.50;83.60
15394;DHT22;7795;47.986;11.868;2022-09-25T08:24:22;16.50;83.50
15394;DHT22;7795;47.986;11.868;2022-09-25T08:26:47;16.60;83.50
15394;DHT22;7795;47.986;11.868;2022-09-25T08:29:14;16.70;83.40
15394;DHT22;7795;47.986;11.868;2022-09-25T08:31:40;16.80;83.20
15394;DHT22;7795;47.986;11.868;2022-09-25T08:34:06;16.80;82.80
15394;DHT22;7795;47.986;11.868;2022-09-25T08:36:33;16.90;82.60
15394;DHT22;7795;47.986;11.868;2022-09-25T08:38:58;17.00;82.50
15394;DHT22;7795;47.986;11.868;2022-09-25T08:41:28;17.00;82.40
15394;DHT22;7795;47.986;11.868;2022-09-25T08:43:59;17.10;82.20
15394;DHT22;7795;47.986;11.868;2022-09-25T08:46:36;17.20;82.10
15394;DHT22;7795;47.986;11.868;2022-09-25T08:49:22;17.30;81.70
15394;DHT22;7795;47.986;11.868;2022-09-25T08:51:53;17.30;81.60
15394;DHT22;7795;47.986;11.868;2022-09-25T08:54:24;17.40;81.40
15394;DHT22;7795;47.986;11.868;2022-09-25T08:56:54;17.50;81.30
15394;DHT22;7795;47.986;11.868;2022-09-25T08:59:24;17.50;80.90
15394;DHT22;7795;47.986;11.868;2022-09-25T09:01:54;17.60;80.70
15394;DHT22;7795;47.986;11.868;2022-09-25T09:04:24;17.70;80.70
15394;DHT22;7795;47.986;11.868;2022-09-25T09:06:57;17.70;80.50
15394;DHT22;7795;47.986;11.868;2022-09-25T09:09:26;17.80;80.40
15394;DHT22;7795;47.986;11.868;2022-09-25T09:11:59;17.80;80.30
15394;DHT22;7795;47.986;11.868;2022-09-25T09:14:29;17.90;80.00
15394;DHT22;7795;47.986;11.868;2022-09-25T09:16:59;18.00;80.00
15394;DHT22;7795;47.986;11.868;2022-09-25T09:19:26;18.00;79.90
15394;DHT22;7795;47.986;11.868;2022-09-25T09:21:57;18.10;79.90
15394;DHT22;7795;47.986;11.868;2022-09-25T09:24:32;18.20;79.70
15394;DHT22;7795;47.986;11.868;2022-09-25T09:27:13;18.20;79.60
15394;DHT22;7795;47.986;11.868;2022-09-25T09:29:49;18.30;79.50
15394;DHT22;7795;47.986;11.868;2022-09-25T09:32:35;18.40;79.60
15394;DHT22;7795;47.986;11.868;2022-09-25T09:35:13;18.40;79.50
15394;DHT22;7795;47.986;11.868;2022-09-25T09:37:50;18.50;79.40
15394;DHT22;7795;47.986;11.868;2022-09-25T09:40:25;18.60;79.20
15394;DHT22;7795;47.986;11.868;2022-09-25T09:43:01;18.60;79.00
15394;DHT22;7795;47.986;11.868;2022-09-25T09:45:33;18.70;78.70
15394;DHT22;7795;47.986;11.868;2022-09-25T09:48:10;18.80;78.60
15394;DHT22;7795;47.986;11.868;2022-09-25T09:50:41;18.90;78.20
15394;DHT22;7795;47.986;11.868;2022-09-25T09:53:17;19.00;78.00
15394;DHT22;7795;47.986;11.868;2022-09-25T09:55:48;19.00;77.60
15394;DHT22;7795;47.986;11.868;2022-09-25T09:58:19;19.10;77.80
15394;DHT22;7795;47.986;11.868;2022-09-25T10:00:47;19.10;77.60
15394;DHT22;7795;47.986;11.868;2022-09-25T10:03:17;19.20;77.70
15394;DHT22;7795;47.986;11.868;2022-09-25T10:05:46;19.20;77.30
15394;DHT22;7795;47.986;11.868;2022-09-25T10:08:12;19.30;77.20
15394;DHT22;7795;47.986;11.868;2022-09-25T10:10:40;19.30;77.30
15394;DHT22;7795;47.986;11.868;2022-09-25T10:13:14;19.40;76.90
15394;DHT22;7795;47.986;11.868;2022-09-25T10:15:46;19.50;76.50
15394;DHT22;7795;47.986;11.868;2022-09-25T10:18:14;19.50;76.20
15394;DHT22;7795;47.986;11.868;2022-09-25T10:20:44;19.60;76.50
15394;DHT22;7795;47.986;11.868;2022-09-25T10:23:29;19.60;76.20
15394;DHT22;7795;47.986;11.868;2022-09-25T10:25:55;19.60;75.60
15394;DHT22;7795;47.986;11.868;2022-09-25T10:28:25;19.70;76.10
15394;DHT22;7795;47.986;11.868;2022-09-25T10:30:53;19.70;76.40
15394;DHT22;7795;47.986;11.868;2022-09-25T10:33:21;19.70;75.60
15394;DHT22;7795;47.986;11.868;2022-09-25T10:35:47;19.80;75.50
15394;DHT22;7795;47.986;11.868;2022-09-25T10:38:28;19.80;75.50
15394;DHT22;7795;47.986;11.868;2022-09-25T10:40:58;19.80;74.60
15394;DHT22;7795;47.986;11.868;2022-09-25T10:43:27;19.90;74.90
15394;DHT22;7795;47.986;11.868;2022-09-25T10:46:11;19.90;75.10
15394;DHT22;7795;47.986;11.868;2022-09-25T10:48:39;19.90;74.30
15394;DHT22;7795;47.986;11.868;2022-09-25T10:51:24;19.90;74.90
15394;DHT22;7795;47.986;11.868;2022-09-25T10:53:58;20.00;75.00
15394;DHT22;7795;47.986;11.868;2022-09-25T10:56:34;19.90;74.90
15394;DHT22;7795;47.986;11.868;2022-09-25T10:59:09;20.00;75.20
15394;DHT22;7795;47.986;11.868;2022-09-25T11:01:41;20.00;74.80
15394;DHT22;7795;47.986;11.868;2022-09-25T11:04:12;19.90;74.90
15394;DHT22;7795;47.986;11.868;2022-09-25T11:06:42;19.90;75.60
15394;DHT22;7795;47.986;11.868;2022-09-25T11:09:13;19.90;75.50
15394;DHT22;7795;47.986;11.868;2022-09-25T11:11:39;19.90;75.60
15394;DHT22;7795;47.986;11.868;2022-09-25T11:14:15;19.90;75.60
15394;DHT22;7795;47.986;11.868;2022-09-25T11:16:47;19.80;75.70
15394;DHT22;7795;47.986;11.868;2022-09-25T11:19:15;19.80;75.90
15394;DHT22;7795;47.986;11.868;2022-09-25T11:21:48;19.80;76.20
15394;DHT22;7795;47.986;11.868;2022-09-25T11:24:20;19.70;76.20
15394;DHT22;7795;47.986;11.868;2022-09-25T11:26:51;19.70;76.30
15394;DHT22;7795;47.986;11.868;2022-09-25T11:29:22;19.70;76.60
15394;DHT22;7795;47.986;11.868;2022-09-25T11:31:54;19.60;77.00
15394;DHT22;7795;47.986;11.868;2022-09-25T11:34:32;19.60;77.30
15394;DHT22;7795;47.986;11.868;2022-09-25T11:37:07;19.60;77.60
15394;DHT22;7795;47.986;11.868;2022-09-25T11:39:43;19.60;77.60
15394;DHT22;7795;47.986;11.868;2022-09-25T11:42:33;19.70;77.50
15394;DHT22;7795;47.986;11.868;2022-09-25T11:45:05;19.70;77.40
15394;DHT22;7795;47.986;11.868;2022-09-25T11:47:39;19.70;77.40
15394;DHT22;7795;47.986;11.868;2022-09-25T11:50:11;19.80;77.40
15394;DHT22;7795;47.986;11.868;2022-09-25T11:52:48;19.70;77.50
15394;DHT22;7795;47.986;11.868;2022-09-25T11:55:51;19.80;77.80
15394;DHT22;7795;47.986;11.868;2022-09-25T11:58:32;19.90;77.20
15394;DHT22;7795;47.986;11.868;2022-09-25T12:01:08;19.90;77.10
15394;DHT22;7795;47.986;11.868;2022-09-25T12:04:10;19.90;77.30
15394;DHT22;7795;47.986;11.868;2022-09-25T12:06:54;20.00;77.40
15394;DHT22;7795;47.986;11.868;2022-09-25T12:09:45;20.00;76.50
15394;DHT22;7795;47.986;11.868;2022-09-25T12:12:18;20.00;76.90
15394;DHT22;7795;47.986;11.868;2022-09-25T12:15:01;20.10;76.60
15394;DHT22;7795;47.986;11.868;2022-09-25T12:17:36;20.00;76.20
15394;DHT22;7795;47.986;11.868;2022-09-25T12:20:12;20.00;76.80
15394;DHT22;7795;47.986;11.868;2022-09-25T12:22:46;20.10;76.40
15394;DHT22;7795;47.986;11.868;2022-09-25T12:25:28;20.10;75.80
15394;DHT22;7795;47.986;11.868;2022-09-25T12:28:00;20.10;75.70
15394;DHT22;7795;47.986;11.868;2022-09-25T12:30:31;20.10;75.90
15394;DHT22;7795;47.986;11.868;2022-09-25T12:33:14;20.10;75.50
15394;DHT22;7795;47.986;11.868;2022-09-25T12:35:47;20.10;75.80
15394;DHT22;7795;47.986;11.868;2022-09-25T12:38:23;20.10;75.90
15394;DHT22;7795;47.986;11.868;2022-09-25T12:40:53;20.10;75.20
15394;DHT22;7795;47.986;11.868;2022-09-25T12:43:25;20.20;75.30
15394;DHT22;7795;47.986;11.868;2022-09-25T12:45:57;20.20;74.80
15394;DHT22;7795;47.986;11.868;2022-09-25T12:48:30;20.20;75.10
15394;DHT22;7795;47.986;11.868;2022-09-25T12:51:02;20.20;74.80
15394;DHT22;7795;47.986;11.868;2022-09-25T12:53:34;20.20;74.50
15394;DHT22;7795;47.986;11.868;2022-09-25T12:56:19;20.20;74.70
15394;DHT22;7795;47.986;11.868;2022-09-25T12:58:55;20.20;74.10
15394;DHT22;7795;47.986;11.868;2022-09-25T13:01:26;20.20;73.90
15394;DHT22;7795;47.986;11.868;2022-09-25T13:04:04;20.20;74.10
15394;DHT22;7795;47.986;11.868;2022-09-25T13:06:41;20.30;72.80
15394;DHT22;7795;47.986;11.868;2022-09-25T13:09:16;20.30;72.60
15394;DHT22;7795;47.986;11.868;2022-09-25T13:11:48;20.20;72.20
15394;DHT22;7795;47.986;11.868;2022-09-25T13:14:26;20.20;72.50
15394;DHT22;7795;47.986;11.868;2022-09-25T13:16:52;20.20;73.00
15394;DHT22;7795;47.986;11.868;2022-09-25T13:19:24;20.20;73.10
15394;DHT22;7795;47.986;11.868;2022-09-25T13:22:01;20.20;72.80
15394;DHT22;7795;47.986;11.868;2022-09-25T13:24:28;20.20;73.30
15394;DHT22;7795;47.986;11.868;2022-09-25T13:26:58;20.20;72.90
15394;DHT22;7795;47.986;11.868;2022-09-25T13:29:29;20.20;72.50
15394;DHT22;7795;47.986;11.868;2022-09-25T13:32:05;20.10;72.30
15394;DHT22;7795;47.986;11.868;2022-09-25T13:34:36;20.10;72.60
15394;DHT22;7795;47.986;11.868;2022-09-25T13:37:05;20.10;72.60
15394;DHT22;7795;47.986;11.868;2022-09-25T13:39:33;20.00;72.50
15394;DHT22;7795;47.986;11.868;2022-09-25T13:42:23;20.00;72.60
15394;DHT22;7795;47.986;11.868;2022-09-25T13:44:57;20.00;72.90
15394;DHT22;7795;47.986;11.868;2022-09-25T13:50:22;19.90;73.50
15394;DHT22;7795;47.986;11.868;2022-09-25T13:53:08;19.90;73.80
15394;DHT22;7795;47.986;11.868;2022-09-25T13:56:21;19.90;74.30
15394;DHT22;7795;47.986;11.868;2022-09-25T13:59:21;19.80;73.90
15394;DHT22;7795;47.986;11.868;2022-09-25T14:01:51;19.80;74.30
15394;DHT22;7795;47.986;11.868;2022-09-25T14:04:34;19.80;74.10
15394;DHT22;7795;47.986;11.868;2022-09-25T14:07:14;19.70;74.00
15394;DHT22;7795;47.986;11.868;2022-09-25T14:09:45;19.60;73.90
15394;DHT22;7795;47.986;11.868;2022-09-25T14:12:23;19.50;73.90
15394;DHT22;7795;47.986;11.868;2022-09-25T14:14:53;19.40;73.30
15394;DHT22;7795;47.986;11.868;2022-09-25T14:17:23;19.30;73.50
15394;DHT22;7795;47.986;11.868;2022-09-25T14:19:52;19.20;73.90
15394;DHT22;7795;47.986;11.868;2022-09-25T14:22:26;19.10;74.10
15394;DHT22;7795;47.986;11.868;2022-09-25T14:24:54;19.00;74.60
15394;DHT22;7795;47.986;11.868;2022-09-25T14:27:22;18.90;74.70
15394;DHT22;7795;47.986;11.868;2022-09-25T14:29:48;18.80;74.60
15394;DHT22;7795;47.986;11.868;2022-09-25T14:32:23;18.70;74.50
15394;DHT22;7795;47.986;11.868;2022-09-25T14:35:07;18.70;74.60
15394;DHT22;7795;47.986;11.868;2022-09-25T14:38:01;18.60;74.40
15394;DHT22;7795;47.986;11.868;2022-09-25T14:40:36;18.50;74.80
15394;DHT22;7795;47.986;11.868;2022-09-25T14:43:19;18.50;75.90
15394;DHT22;7795;47.986;11.868;2022-09-25T14:45:59;18.40;75.60
15394;DHT22;7795;47.986;11.868;2022-09-25T14:48:29;18.40;75.80
15394;DHT22;7795;47.986;11.868;2022-09-25T14:50:58;18.30;75.80
15394;DHT22;7795;47.986;11.868;2022-09-25T14:53:28;18.20;76.00
15394;DHT22;7795;47.986;11.868;2022-09-25T14:55:58;18.20;76.10
15394;DHT22;7795;47.986;11.868;2022-09-25T14:58:29;18.10;76.10
15394;DHT22;7795;47.986;11.868;2022-09-25T15:01:00;18.10;76.40
15394;DHT22;7795;47.986;11.868;2022-09-25T15:03:30;18.00;76.70
15394;DHT22;7795;47.986;11.868;2022-09-25T15:05:59;18.00;77.00
15394;DHT22;7795;47.986;11.868;2022-09-25T15:08:33;18.00;77.30
15394;DHT22;7795;47.986;11.868;2022-09-25T15:11:07;18.00;77.60
15394;DHT22;7795;47.986;11.868;2022-09-25T15:13:33;18.00;77.60
15394;DHT22;7795;47.986;11.868;2022-09-25T15:15:59;17.90;77.60
15394;DHT22;7795;47.986;11.868;2022-09-25T15:18:50;17.90;77.80
15394;DHT22;7795;47.986;11.868;2022-09-25T15:21:22;17.90;77.80
15394;DHT22;7795;47.986;11.868;2022-09-25T15:23:50;18.00;78.00
15394;DHT22;7795;47.986;11.868;2022-09-25T15:26:19;18.00;78.10
15394;DHT22;7795;47.986;11.868;2022-09-25T15:28:45;18.00;78.40
15394;DHT22;7795;47.986;11.868;2022-09-25T15:31:11;18.00;78.40
15394;DHT22;7795;47.986;11.868;2022-09-25T15:33:38;18.00;78.40
15394;DHT22;7795;47.986;11.868;2022-09-25T15:36:14;18.00;78.40
15394;DHT22;7795;47.986;11.868;2022-09-25T15:38:40;18.00;78.60
15394;DHT22;7795;47.986;11.868;2022-09-25T15:41:11;18.00;78.40
15394;DHT22;7795;47.986;11.868;2022-09-25T15:43:39;18.00;78.60
15394;DHT22;7795;47.986;11.868;2022-09-25T15:46:29;18.00;78.60
15394;DHT22;7795;47.986;11.868;2022-09-25T15:48:58;18.00;79.10
15394;DHT22;7795;47.986;11.868;2022-09-25T15:51:26;18.00;78.70
15394;DHT22;7795;47.986;11.868;2022-09-25T15:53:56;18.00;78.80
15394;DHT22;7795;47.986;11.868;2022-09-25T15:56:26;18.10;78.90
15394;DHT22;7795;47.986;11.868;2022-09-25T15:58:56;18.10;79.00
15394;DHT22;7795;47.986;11.868;2022-09-25T16:01:25;18.10;79.00